createdAt,value
2018-10-21T00:04:28.652Z,31.1
2018-10-21T00:41:22.749Z,40.2
2018-10-21T01:05:30.943Z,38.6
2018-10-21T01:16:42.002Z,44.8
2018-10-21T01:28:03.776Z,58.8
2018-10-21T01:39:07.183Z,55.4
2018-10-21T01:50:18.073Z,54.5
2018-10-21T02:01:25.677Z,42.8
2018-10-21T02:12:58.411Z,62.3
2018-10-21T02:23:44.608Z,42.7
2018-10-21T02:33:59.369Z,37.6
2018-10-21T02:44:56.687Z,44.1
2018-10-21T03:06:39.868Z,35.2
2018-10-21T03:18:24.491Z,56.8
2018-10-21T03:42:09.186Z,56.4
2018-10-21T03:52:58.523Z,43.4
2018-10-21T04:21:39.187Z,69.2
2018-10-21T04:48:01.453Z,51.7
2018-10-21T04:58:40.400Z,40.5
2018-10-21T05:11:23.263Z,44.5
2018-10-21T05:24:20.056Z,50.6
2018-10-21T05:47:19.066Z,58.7
2018-10-21T05:59:21.578Z,48.0
2018-10-21T06:25:02.780Z,65.7
2018-10-21T06:38:36.987Z,68.2
2018-10-21T06:51:42.315Z,74.0
2018-10-21T07:44:01.504Z,68.8
2018-10-21T07:55:23.457Z,54.7
2018-10-21T08:10:58.988Z,57.5
2018-10-21T08:30:12.440Z,59.3
2018-10-21T08:42:39.705Z,52.0
2018-10-21T08:54:58.816Z,57.1
2018-10-21T09:07:47.510Z,49.0
2018-10-21T09:18:10.948Z,49.2
2018-10-21T09:39:37.349Z,51.8
2018-10-21T09:50:02.615Z,63.3
2018-10-21T10:01:20.199Z,50.5
2018-10-21T10:12:16.086Z,48.4
2018-10-21T10:59:14.971Z,44.7
2018-10-21T11:10:30.904Z,37.0
2018-10-21T11:21:57.070Z,51.7
2018-10-21T11:34:57.845Z,51.6
2018-10-21T11:46:31.338Z,52.5
2018-10-21T12:12:55.710Z,36.9
2018-10-21T12:25:46.062Z,59.0
2018-10-21T12:54:27.517Z,37.4
2018-10-21T13:07:40.760Z,38.3
2018-10-21T14:16:27.811Z,36.8
2018-10-21T14:27:52.745Z,33.4
2018-10-21T14:58:52.560Z,40.3
2018-10-21T15:26:26.460Z,34.9
2018-10-21T15:36:49.917Z,32.3
2018-10-21T15:57:40.053Z,30.5
2018-10-21T16:18:08.160Z,36.5
2018-10-21T16:28:54.128Z,34.1
2018-10-21T16:42:23.825Z,35.1
2018-10-21T16:54:31.762Z,35.2
2018-10-21T17:05:21.808Z,38.1
2018-10-21T18:56:03.931Z,45.0
2018-10-21T20:38:57.808Z,33.7
2018-10-21T20:49:45.302Z,40.5
2018-10-21T20:59:59.021Z,36.9
2018-10-21T21:10:11.451Z,41.0
2018-10-21T21:20:25.368Z,32.9
2018-10-21T21:31:10.995Z,35.5
2018-10-21T21:41:26.954Z,38.1
2018-10-21T21:52:47.691Z,36.2
2018-10-21T22:04:08.652Z,41.1
2018-10-21T22:14:46.238Z,36.2
2018-10-21T22:26:10.313Z,37.2
2018-10-21T22:38:02.567Z,31.8
2018-10-21T22:48:58.139Z,35.5
2018-10-21T23:00:16.343Z,48.5
2018-10-21T23:11:31.107Z,41.4
2018-10-21T23:22:13.075Z,48.4
2018-10-21T23:33:16.904Z,43.4
2018-10-21T23:43:30.608Z,33.6
2018-10-21T23:53:52.987Z,37.2
